sensor_id;sensor_type;location;lat;lon;timestamp;P1;durP1;ratioP1;P2;durP2;ratioP2
51883;SDS011;37915;53.254;6.598;2022-11-06T00:00:10;8.25;;;4.05;;
51883;SDS011;37915;53.254;6.598;2022-11-06T00:02:37;8.57;;;4.32;;
51883;SDS011;37915;53.254;6.598;2022-11-06T00:05:03;8.35;;;4.05;;
51883;SDS011;37915;53.254;6.598;2022-11-06T00:07:48;14.52;;;4.90;;
51883;SDS011;37915;53.254;6.598;2022-11-06T00:10:14;9.43;;;4.45;;
51883;SDS011;37915;53.254;6.598;2022-11-06T00:12:40;10.93;;;4.72;;
51883;SDS011;37915;53.254;6.598;2022-11-06T00:15:06;10.40;;;4.40;;
51883;SDS011;37915;53.254;6.598;2022-11-06T00:17:33;9.82;;;4.70;;
51883;SDS011;37915;53.254;6.598;2022-11-06T00:19:59;11.68;;;4.38;;
51883;SDS011;37915;53.254;6.598;2022-11-06T00:22:25;8.32;;;4.47;;
51883;SDS011;37915;53.254;6.598;2022-11-06T00:24:51;11.80;;;4.85;;
51883;SDS011;37915;53.254;6.598;2022-11-06T00:27:17;10.25;;;5.50;;
51883;SDS011;37915;53.254;6.598;2022-11-06T00:29:43;8.32;;;4.80;;
51883;SDS011;37915;53.254;6.598;2022-11-06T00:32:08;11.18;;;5.68;;
51883;SDS011;37915;53.254;6.598;2022-11-06T00:34:34;9.07;;;4.43;;
51883;SDS011;37915;53.254;6.598;2022-11-06T00:37:00;9.63;;;5.28;;
51883;SDS011;37915;53.254;6.598;2022-11-06T00:39:25;8.43;;;5.32;;
51883;SDS011;37915;53.254;6.598;2022-11-06T00:41:51;8.27;;;5.28;;
51883;SDS011;37915;53.254;6.598;2022-11-06T00:44:17;13.07;;;5.82;;
51883;SDS011;37915;53.254;6.598;2022-11-06T00:46:42;9.07;;;5.28;;
51883;SDS011;37915;53.254;6.598;2022-11-06T00:49:08;8.05;;;5.68;;
51883;SDS011;37915;53.254;6.598;2022-11-06T00:51:35;7.78;;;5.13;;
51883;SDS011;37915;53.254;6.598;2022-11-06T00:54:05;10.77;;;5.75;;
51883;SDS011;37915;53.254;6.598;2022-11-06T00:56:32;10.35;;;5.38;;
51883;SDS011;37915;53.254;6.598;2022-11-06T00:59:00;9.88;;;5.70;;
51883;SDS011;37915;53.254;6.598;2022-11-06T01:03:55;9.13;;;5.93;;
51883;SDS011;37915;53.254;6.598;2022-11-06T01:06:23;9.60;;;5.80;;
51883;SDS011;37915;53.254;6.598;2022-11-06T01:08:50;8.82;;;5.75;;
51883;SDS011;37915;53.254;6.598;2022-11-06T01:11:21;11.45;;;6.72;;
51883;SDS011;37915;53.254;6.598;2022-11-06T01:13:51;11.55;;;5.93;;
51883;SDS011;37915;53.254;6.598;2022-11-06T01:16:19;13.05;;;6.28;;
51883;SDS011;37915;53.254;6.598;2022-11-06T01:18:45;11.00;;;6.80;;
51883;SDS011;37915;53.254;6.598;2022-11-06T01:21:13;13.73;;;6.88;;
51883;SDS011;37915;53.254;6.598;2022-11-06T01:24:23;9.52;;;5.32;;
51883;SDS011;37915;53.254;6.598;2022-11-06T01:26:42;10.63;;;6.35;;
51883;SDS011;37915;53.254;6.598;2022-11-06T01:29:09;10.75;;;6.07;;
51883;SDS011;37915;53.254;6.598;2022-11-06T01:31:37;12.98;;;7.28;;
51883;SDS011;37915;53.254;6.598;2022-11-06T01:34:03;9.05;;;5.55;;
51883;SDS011;37915;53.254;6.598;2022-11-06T01:36:30;13.85;;;6.75;;
51883;SDS011;37915;53.254;6.598;2022-11-06T01:38:56;9.52;;;6.25;;
51883;SDS011;37915;53.254;6.598;2022-11-06T01:41:25;11.23;;;6.43;;
51883;SDS011;37915;53.254;6.598;2022-11-06T01:43:55;11.40;;;7.07;;
51883;SDS011;37915;53.254;6.598;2022-11-06T01:46:26;12.30;;;6.15;;
51883;SDS011;37915;53.254;6.598;2022-11-06T01:48:58;9.20;;;5.97;;
51883;SDS011;37915;53.254;6.598;2022-11-06T01:51:29;10.20;;;5.93;;
51883;SDS011;37915;53.254;6.598;2022-11-06T01:54:06;12.98;;;6.15;;
51883;SDS011;37915;53.254;6.598;2022-11-06T01:56:32;10.98;;;6.22;;
51883;SDS011;37915;53.254;6.598;2022-11-06T01:59:00;10.80;;;6.18;;
51883;SDS011;37915;53.254;6.598;2022-11-06T02:01:27;11.70;;;7.18;;
51883;SDS011;37915;53.254;6.598;2022-11-06T02:04:08;12.02;;;7.00;;
51883;SDS011;37915;53.254;6.598;2022-11-06T02:06:37;13.98;;;7.60;;
51883;SDS011;37915;53.254;6.598;2022-11-06T02:09:03;9.95;;;6.50;;
51883;SDS011;37915;53.254;6.598;2022-11-06T02:11:35;11.80;;;6.87;;
51883;SDS011;37915;53.254;6.598;2022-11-06T02:14:15;15.32;;;8.55;;
51883;SDS011;37915;53.254;6.598;2022-11-06T02:16:51;12.80;;;7.05;;
51883;SDS011;37915;53.254;6.598;2022-11-06T02:19:28;11.35;;;6.60;;
51883;SDS011;37915;53.254;6.598;2022-11-06T02:22:27;12.77;;;7.13;;
51883;SDS011;37915;53.254;6.598;2022-11-06T02:25:07;10.40;;;6.10;;
51883;SDS011;37915;53.254;6.598;2022-11-06T02:27:46;12.88;;;7.13;;
51883;SDS011;37915;53.254;6.598;2022-11-06T02:30:17;13.52;;;6.47;;
51883;SDS011;37915;53.254;6.598;2022-11-06T02:33:00;9.35;;;5.70;;
51883;SDS011;37915;53.254;6.598;2022-11-06T02:35:34;9.18;;;5.97;;
51883;SDS011;37915;53.254;6.598;2022-11-06T02:38:35;14.43;;;7.28;;
51883;SDS011;37915;53.254;6.598;2022-11-06T02:41:05;11.23;;;7.25;;
51883;SDS011;37915;53.254;6.598;2022-11-06T02:43:36;10.13;;;6.47;;
51883;SDS011;37915;53.254;6.598;2022-11-06T02:46:12;12.82;;;6.97;;
51883;SDS011;37915;53.254;6.598;2022-11-06T02:48:55;14.48;;;6.82;;
51883;SDS011;37915;53.254;6.598;2022-11-06T02:51:27;7.95;;;5.63;;
51883;SDS011;37915;53.254;6.598;2022-11-06T02:53:55;9.57;;;6.53;;
51883;SDS011;37915;53.254;6.598;2022-11-06T02:56:26;11.00;;;7.05;;
51883;SDS011;37915;53.254;6.598;2022-11-06T03:01:48;11.13;;;6.13;;
51883;SDS011;37915;53.254;6.598;2022-11-06T03:04:32;12.98;;;7.07;;
51883;SDS011;37915;53.254;6.598;2022-11-06T03:07:09;10.93;;;6.68;;
51883;SDS011;37915;53.254;6.598;2022-11-06T03:09:40;11.38;;;7.05;;
51883;SDS011;37915;53.254;6.598;2022-11-06T03:12:21;10.85;;;6.93;;
51883;SDS011;37915;53.254;6.598;2022-11-06T03:14:56;12.15;;;7.13;;
51883;SDS011;37915;53.254;6.598;2022-11-06T03:20:15;10.38;;;6.85;;
51883;SDS011;37915;53.254;6.598;2022-11-06T03:22:51;12.52;;;7.95;;
51883;SDS011;37915;53.254;6.598;2022-11-06T03:25:23;9.27;;;6.25;;
51883;SDS011;37915;53.254;6.598;2022-11-06T03:30:57;12.38;;;7.43;;
51883;SDS011;37915;53.254;6.598;2022-11-06T03:33:33;12.93;;;7.50;;
51883;SDS011;37915;53.254;6.598;2022-11-06T03:36:12;9.17;;;6.50;;
51883;SDS011;37915;53.254;6.598;2022-11-06T03:38:49;11.50;;;6.38;;
51883;SDS011;37915;53.254;6.598;2022-11-06T03:43:56;9.00;;;5.80;;
51883;SDS011;37915;53.254;6.598;2022-11-06T03:46:23;11.45;;;7.13;;
51883;SDS011;37915;53.254;6.598;2022-11-06T03:48:53;11.60;;;6.78;;
51883;SDS011;37915;53.254;6.598;2022-11-06T03:51:32;10.10;;;7.13;;
51883;SDS011;37915;53.254;6.598;2022-11-06T03:54:14;9.35;;;5.85;;
51883;SDS011;37915;53.254;6.598;2022-11-06T03:56:53;8.85;;;6.15;;
51883;SDS011;37915;53.254;6.598;2022-11-06T04:02:05;8.75;;;6.25;;
51883;SDS011;37915;53.254;6.598;2022-11-06T04:04:41;10.18;;;7.05;;
51883;SDS011;37915;53.254;6.598;2022-11-06T04:07:13;8.52;;;6.03;;
51883;SDS011;37915;53.254;6.598;2022-11-06T04:09:45;9.90;;;6.80;;
51883;SDS011;37915;53.254;6.598;2022-11-06T04:12:34;10.50;;;6.82;;
51883;SDS011;37915;53.254;6.598;2022-11-06T04:15:20;10.48;;;5.93;;
51883;SDS011;37915;53.254;6.598;2022-11-06T04:17:47;11.55;;;6.10;;
51883;SDS011;37915;53.254;6.598;2022-11-06T04:20:14;13.13;;;6.40;;
51883;SDS011;37915;53.254;6.598;2022-11-06T04:23:13;7.90;;;5.45;;
51883;SDS011;37915;53.254;6.598;2022-11-06T04:36:48;9.48;;;6.03;;
51883;SDS011;37915;53.254;6.598;2022-11-06T04:45:16;12.45;;;6.85;;
51883;SDS011;37915;53.254;6.598;2022-11-06T04:47:51;9.98;;;6.60;;
51883;SDS011;37915;53.254;6.598;2022-11-06T04:50:19;13.27;;;6.68;;
51883;SDS011;37915;53.254;6.598;2022-11-06T04:52:47;10.18;;;6.10;;
51883;SDS011;37915;53.254;6.598;2022-11-06T04:55:14;10.43;;;6.43;;
51883;SDS011;37915;53.254;6.598;2022-11-06T04:57:40;12.20;;;6.50;;
51883;SDS011;37915;53.254;6.598;2022-11-06T05:00:09;9.07;;;5.95;;
51883;SDS011;37915;53.254;6.598;2022-11-06T05:02:37;12.23;;;5.95;;
51883;SDS011;37915;53.254;6.598;2022-11-06T05:05:02;11.32;;;5.90;;
51883;SDS011;37915;53.254;6.598;2022-11-06T05:07:28;11.57;;;6.72;;
51883;SDS011;37915;53.254;6.598;2022-11-06T05:09:54;11.90;;;6.03;;
51883;SDS011;37915;53.254;6.598;2022-11-06T05:12:20;8.93;;;5.90;;
51883;SDS011;37915;53.254;6.598;2022-11-06T05:14:45;8.88;;;5.38;;
51883;SDS011;37915;53.254;6.598;2022-11-06T05:17:11;13.85;;;5.82;;
51883;SDS011;37915;53.254;6.598;2022-11-06T05:19:37;9.80;;;5.75;;
51883;SDS011;37915;53.254;6.598;2022-11-06T05:22:03;11.68;;;6.47;;
51883;SDS011;37915;53.254;6.598;2022-11-06T05:24:47;14.30;;;6.32;;
51883;SDS011;37915;53.254;6.598;2022-11-06T05:27:15;10.05;;;4.82;;
51883;SDS011;37915;53.254;6.598;2022-11-06T05:29:41;10.60;;;6.20;;
51883;SDS011;37915;53.254;6.598;2022-11-06T05:32:07;13.43;;;5.90;;
51883;SDS011;37915;53.254;6.598;2022-11-06T05:34:33;11.18;;;5.80;;
51883;SDS011;37915;53.254;6.598;2022-11-06T05:36:58;9.02;;;6.10;;
51883;SDS011;37915;53.254;6.598;2022-11-06T05:39:24;7.93;;;5.75;;
51883;SDS011;37915;53.254;6.598;2022-11-06T05:41:50;11.45;;;5.95;;
51883;SDS011;37915;53.254;6.598;2022-11-06T05:44:16;10.60;;;5.93;;
51883;SDS011;37915;53.254;6.598;2022-11-06T05:46:41;10.95;;;5.07;;
51883;SDS011;37915;53.254;6.598;2022-11-06T05:49:08;13.88;;;5.88;;
51883;SDS011;37915;53.254;6.598;2022-11-06T05:51:33;10.43;;;6.18;;
51883;SDS011;37915;53.254;6.598;2022-11-06T05:54:00;12.75;;;6.75;;
51883;SDS011;37915;53.254;6.598;2022-11-06T05:56:26;9.38;;;4.97;;
51883;SDS011;37915;53.254;6.598;2022-11-06T05:58:51;11.80;;;5.53;;
51883;SDS011;37915;53.254;6.598;2022-11-06T06:01:17;15.60;;;5.20;;
51883;SDS011;37915;53.254;6.598;2022-11-06T06:03:43;8.55;;;4.30;;
51883;SDS011;37915;53.254;6.598;2022-11-06T06:06:12;15.40;;;5.30;;
51883;SDS011;37915;53.254;6.598;2022-11-06T06:08:38;11.30;;;5.65;;
51883;SDS011;37915;53.254;6.598;2022-11-06T06:11:04;11.13;;;6.22;;
51883;SDS011;37915;53.254;6.598;2022-11-06T06:13:36;8.85;;;5.50;;
51883;SDS011;37915;53.254;6.598;2022-11-06T06:16:02;5.95;;;4.18;;
51883;SDS011;37915;53.254;6.598;2022-11-06T06:18:29;8.52;;;4.82;;
51883;SDS011;37915;53.254;6.598;2022-11-06T06:20:56;9.85;;;5.40;;
51883;SDS011;37915;53.254;6.598;2022-11-06T06:23:25;10.75;;;5.35;;
51883;SDS011;37915;53.254;6.598;2022-11-06T06:25:55;9.93;;;4.85;;
51883;SDS011;37915;53.254;6.598;2022-11-06T06:28:21;9.65;;;5.07;;
51883;SDS011;37915;53.254;6.598;2022-11-06T06:30:47;7.75;;;4.95;;
51883;SDS011;37915;53.254;6.598;2022-11-06T06:33:12;13.45;;;4.97;;
51883;SDS011;37915;53.254;6.598;2022-11-06T06:35:41;9.05;;;4.47;;
51883;SDS011;37915;53.254;6.598;2022-11-06T06:38:09;10.25;;;4.65;;
51883;SDS011;37915;53.254;6.598;2022-11-06T06:40:35;10.60;;;4.55;;
51883;SDS011;37915;53.254;6.598;2022-11-06T06:43:01;9.85;;;5.10;;
51883;SDS011;37915;53.254;6.598;2022-11-06T06:45:26;7.28;;;4.13;;
51883;SDS011;37915;53.254;6.598;2022-11-06T06:47:52;10.25;;;4.45;;
51883;SDS011;37915;53.254;6.598;2022-11-06T06:50:20;12.25;;;5.00;;
51883;SDS011;37915;53.254;6.598;2022-11-06T06:52:46;8.82;;;4.40;;
51883;SDS011;37915;53.254;6.598;2022-11-06T06:55:15;13.57;;;4.70;;
51883;SDS011;37915;53.254;6.598;2022-11-06T06:57:40;8.27;;;4.47;;
51883;SDS011;37915;53.254;6.598;2022-11-06T07:00:06;9.80;;;4.65;;
51883;SDS011;37915;53.254;6.598;2022-11-06T07:02:32;10.25;;;4.57;;
51883;SDS011;37915;53.254;6.598;2022-11-06T07:05:01;11.63;;;4.35;;
51883;SDS011;37915;53.254;6.598;2022-11-06T07:07:30;11.25;;;4.32;;
51883;SDS011;37915;53.254;6.598;2022-11-06T07:09:58;9.35;;;4.28;;
51883;SDS011;37915;53.254;6.598;2022-11-06T07:12:24;8.35;;;3.90;;
51883;SDS011;37915;53.254;6.598;2022-11-06T07:14:50;15.50;;;4.30;;
51883;SDS011;37915;53.254;6.598;2022-11-06T07:17:15;12.35;;;3.92;;
51883;SDS011;37915;53.254;6.598;2022-11-06T07:19:45;8.77;;;3.38;;
51883;SDS011;37915;53.254;6.598;2022-11-06T07:22:11;9.60;;;4.38;;
51883;SDS011;37915;53.254;6.598;2022-11-06T07:24:44;6.57;;;3.63;;
51883;SDS011;37915;53.254;6.598;2022-11-06T07:27:17;10.77;;;4.05;;
51883;SDS011;37915;53.254;6.598;2022-11-06T07:30:03;7.43;;;3.90;;
51883;SDS011;37915;53.254;6.598;2022-11-06T07:32:29;9.45;;;3.63;;
51883;SDS011;37915;53.254;6.598;2022-11-06T07:34:56;9.73;;;3.92;;
51883;SDS011;37915;53.254;6.598;2022-11-06T07:37:24;8.30;;;3.58;;
51883;SDS011;37915;53.254;6.598;2022-11-06T07:39:52;8.23;;;4.40;;
51883;SDS011;37915;53.254;6.598;2022-11-06T07:42:20;9.90;;;3.95;;
51883;SDS011;37915;53.254;6.598;2022-11-06T07:44:45;7.78;;;3.35;;
51883;SDS011;37915;53.254;6.598;2022-11-06T07:47:11;10.07;;;3.97;;
51883;SDS011;37915;53.254;6.598;2022-11-06T07:49:37;7.90;;;3.35;;
51883;SDS011;37915;53.254;6.598;2022-11-06T07:52:04;10.10;;;3.58;;
51883;SDS011;37915;53.254;6.598;2022-11-06T07:54:32;8.10;;;3.70;;
51883;SDS011;37915;53.254;6.598;2022-11-06T07:56:59;8.93;;;3.90;;
51883;SDS011;37915;53.254;6.598;2022-11-06T07:59:33;8.60;;;3.17;;
51883;SDS011;37915;53.254;6.598;2022-11-06T08:02:08;8.82;;;3.35;;
51883;SDS011;37915;53.254;6.598;2022-11-06T08:04:47;13.10;;;3.97;;
51883;SDS011;37915;53.254;6.598;2022-11-06T08:07:15;7.70;;;3.38;;
51883;SDS011;37915;53.254;6.598;2022-11-06T08:09:41;7.38;;;3.33;;
51883;SDS011;37915;53.254;6.598;2022-11-06T08:12:07;8.02;;;3.33;;
51883;SDS011;37915;53.254;6.598;2022-11-06T08:14:33;7.47;;;3.22;;
51883;SDS011;37915;53.254;6.598;2022-11-06T08:16:58;7.68;;;3.35;;
51883;SDS011;37915;53.254;6.598;2022-11-06T08:19:24;9.20;;;3.35;;
51883;SDS011;37915;53.254;6.598;2022-11-06T08:21:50;5.85;;;2.90;;
51883;SDS011;37915;53.254;6.598;2022-11-06T08:24:15;8.55;;;3.45;;
51883;SDS011;37915;53.254;6.598;2022-11-06T08:26:41;9.60;;;3.92;;
51883;SDS011;37915;53.254;6.598;2022-11-06T08:29:09;6.70;;;3.20;;
51883;SDS011;37915;53.254;6.598;2022-11-06T08:31:35;6.53;;;2.80;;
51883;SDS011;37915;53.254;6.598;2022-11-06T08:34:01;5.40;;;2.85;;
51883;SDS011;37915;53.254;6.598;2022-11-06T08:36:26;5.97;;;3.17;;
51883;SDS011;37915;53.254;6.598;2022-11-06T08:38:52;10.13;;;3.30;;
51883;SDS011;37915;53.254;6.598;2022-11-06T08:41:18;9.05;;;2.97;;
51883;SDS011;37915;53.254;6.598;2022-11-06T08:43:43;8.48;;;3.30;;
51883;SDS011;37915;53.254;6.598;2022-11-06T08:46:09;10.27;;;3.58;;
51883;SDS011;37915;53.254;6.598;2022-11-06T08:48:35;9.57;;;3.45;;
51883;SDS011;37915;53.254;6.598;2022-11-06T08:51:03;7.40;;;3.17;;
51883;SDS011;37915;53.254;6.598;2022-11-06T08:53:29;11.65;;;3.50;;
51883;SDS011;37915;53.254;6.598;2022-11-06T08:55:55;7.22;;;2.88;;
51883;SDS011;37915;53.254;6.598;2022-11-06T08:58:20;8.52;;;3.00;;
51883;SDS011;37915;53.254;6.598;2022-11-06T09:00:46;6.07;;;2.60;;
51883;SDS011;37915;53.254;6.598;2022-11-06T09:03:12;6.65;;;3.13;;
51883;SDS011;37915;53.254;6.598;2022-11-06T09:05:40;8.80;;;3.55;;
51883;SDS011;37915;53.254;6.598;2022-11-06T09:08:07;10.10;;;3.05;;
51883;SDS011;37915;53.254;6.598;2022-11-06T09:10:35;6.10;;;2.95;;
51883;SDS011;37915;53.254;6.598;2022-11-06T09:13:02;8.18;;;3.30;;
51883;SDS011;37915;53.254;6.598;2022-11-06T09:15:28;7.13;;;2.80;;
51883;SDS011;37915;53.254;6.598;2022-11-06T09:17:54;7.30;;;2.78;;
51883;SDS011;37915;53.254;6.598;2022-11-06T09:20:21;8.82;;;2.65;;
51883;SDS011;37915;53.254;6.598;2022-11-06T09:22:48;7.72;;;2.80;;
51883;SDS011;37915;53.254;6.598;2022-11-06T09:25:19;8.63;;;2.78;;
51883;SDS011;37915;53.254;6.598;2022-11-06T09:27:50;11.52;;;3.20;;
51883;SDS011;37915;53.254;6.598;2022-11-06T09:30:25;10.70;;;3.00;;
51883;SDS011;37915;53.254;6.598;2022-11-06T09:32:56;8.57;;;3.72;;
51883;SDS011;37915;53.254;6.598;2022-11-06T09:35:23;10.00;;;3.45;;
51883;SDS011;37915;53.254;6.598;2022-11-06T09:37:50;6.30;;;2.88;;
51883;SDS011;37915;53.254;6.598;2022-11-06T09:40:30;6.25;;;2.90;;
51883;SDS011;37915;53.254;6.598;2022-11-06T09:43:03;8.48;;;3.75;;
51883;SDS011;37915;53.254;6.598;2022-11-06T09:45:49;12.30;;;2.83;;
51883;SDS011;37915;53.254;6.598;2022-11-06T09:48:19;7.45;;;2.70;;
51883;SDS011;37915;53.254;6.598;2022-11-06T09:51:00;6.85;;;2.45;;
51883;SDS011;37915;53.254;6.598;2022-11-06T09:53:46;5.07;;;2.70;;
51883;SDS011;37915;53.254;6.598;2022-11-06T09:56:20;7.05;;;2.80;;
51883;SDS011;37915;53.254;6.598;2022-11-06T09:58:52;11.27;;;3.33;;
51883;SDS011;37915;53.254;6.598;2022-11-06T10:01:22;7.85;;;2.47;;
51883;SDS011;37915;53.254;6.598;2022-11-06T10:03:56;6.03;;;2.30;;
51883;SDS011;37915;53.254;6.598;2022-11-06T10:06:24;8.93;;;3.08;;
51883;SDS011;37915;53.254;6.598;2022-11-06T10:08:53;12.27;;;2.90;;
51883;SDS011;37915;53.254;6.598;2022-11-06T10:11:54;9.02;;;2.70;;
51883;SDS011;37915;53.254;6.598;2022-11-06T10:17:07;5.60;;;2.80;;
51883;SDS011;37915;53.254;6.598;2022-11-06T10:19:48;6.38;;;2.72;;
51883;SDS011;37915;53.254;6.598;2022-11-06T10:22:31;6.50;;;2.67;;
51883;SDS011;37915;53.254;6.598;2022-11-06T10:25:48;7.32;;;3.00;;
51883;SDS011;37915;53.254;6.598;2022-11-06T10:28:19;9.23;;;2.78;;
51883;SDS011;37915;53.254;6.598;2022-11-06T10:30:59;7.72;;;2.40;;
51883;SDS011;37915;53.254;6.598;2022-11-06T10:33:32;11.23;;;3.08;;
51883;SDS011;37915;53.254;6.598;2022-11-06T10:36:09;6.88;;;2.50;;
51883;SDS011;37915;53.254;6.598;2022-11-06T10:38:43;11.77;;;2.47;;
51883;SDS011;37915;53.254;6.598;2022-11-06T10:41:31;7.00;;;2.67;;
51883;SDS011;37915;53.254;6.598;2022-11-06T10:46:59;5.45;;;2.38;;
51883;SDS011;37915;53.254;6.598;2022-11-06T10:49:47;14.07;;;3.05;;
51883;SDS011;37915;53.254;6.598;2022-11-06T10:54:51;8.10;;;2.50;;
51883;SDS011;37915;53.254;6.598;2022-11-06T11:00:12;6.07;;;2.58;;
51883;SDS011;37915;53.254;6.598;2022-11-06T11:02:39;8.38;;;2.97;;
51883;SDS011;37915;53.254;6.598;2022-11-06T11:05:20;6.70;;;2.50;;
51883;SDS011;37915;53.254;6.598;2022-11-06T11:07:48;5.80;;;2.63;;
51883;SDS011;37915;53.254;6.598;2022-11-06T11:10:36;5.28;;;2.38;;
51883;SDS011;37915;53.254;6.598;2022-11-06T11:13:04;6.78;;;2.22;;
51883;SDS011;37915;53.254;6.598;2022-11-06T11:15:43;5.28;;;2.80;;
51883;SDS011;37915;53.254;6.598;2022-11-06T11:20:39;7.78;;;2.30;;
51883;SDS011;37915;53.254;6.598;2022-11-06T11:23:21;8.48;;;2.40;;
51883;SDS011;37915;53.254;6.598;2022-11-06T11:25:53;9.00;;;2.60;;
51883;SDS011;37915;53.254;6.598;2022-11-06T11:28:31;6.45;;;2.25;;
51883;SDS011;37915;53.254;6.598;2022-11-06T11:33:31;4.57;;;2.50;;
51883;SDS011;37915;53.254;6.598;2022-11-06T11:35:57;8.88;;;2.60;;
51883;SDS011;37915;53.254;6.598;2022-11-06T11:38:24;7.35;;;2.60;;
51883;SDS011;37915;53.254;6.598;2022-11-06T11:40:50;5.03;;;2.10;;
51883;SDS011;37915;53.254;6.598;2022-11-06T11:51:41;7.03;;;2.70;;
51883;SDS011;37915;53.254;6.598;2022-11-06T11:59:26;7.80;;;2.20;;
51883;SDS011;37915;53.254;6.598;2022-11-06T12:01:56;5.50;;;2.38;;
51883;SDS011;37915;53.254;6.598;2022-11-06T12:04:34;7.70;;;2.45;;
51883;SDS011;37915;53.254;6.598;2022-11-06T12:07:03;7.28;;;2.10;;
51883;SDS011;37915;53.254;6.598;2022-11-06T12:09:33;6.88;;;2.28;;
51883;SDS011;37915;53.254;6.598;2022-11-06T12:12:07;8.27;;;2.65;;
51883;SDS011;37915;53.254;6.598;2022-11-06T12:15:04;8.85;;;2.33;;
51883;SDS011;37915;53.254;6.598;2022-11-06T12:17:40;4.93;;;2.03;;
51883;SDS011;37915;53.254;6.598;2022-11-06T12:27:51;7.35;;;2.20;;
51883;SDS011;37915;53.254;6.598;2022-11-06T12:30:21;9.18;;;2.13;;
51883;SDS011;37915;53.254;6.598;2022-11-06T12:47:33;5.90;;;2.15;;
51883;SDS011;37915;53.254;6.598;2022-11-06T12:50:05;4.90;;;2.10;;
51883;SDS011;37915;53.254;6.598;2022-11-06T12:55:30;6.68;;;2.08;;
51883;SDS011;37915;53.254;6.598;2022-11-06T12:58:22;7.20;;;2.50;;
51883;SDS011;37915;53.254;6.598;2022-11-06T13:00:54;9.80;;;3.05;;
51883;SDS011;37915;53.254;6.598;2022-11-06T13:03:42;6.72;;;2.17;;
51883;SDS011;37915;53.254;6.598;2022-11-06T13:12:18;6.13;;;2.20;;
51883;SDS011;37915;53.254;6.598;2022-11-06T13:21:00;3.85;;;1.45;;
51883;SDS011;37915;53.254;6.598;2022-11-06T13:23:36;4.00;;;1.63;;
51883;SDS011;37915;53.254;6.598;2022-11-06T13:26:57;7.53;;;2.05;;
51883;SDS011;37915;53.254;6.598;2022-11-06T13:29:04;5.88;;;2.00;;
51883;SDS011;37915;53.254;6.598;2022-11-06T13:31:37;6.05;;;2.00;;
51883;SDS011;37915;53.254;6.598;2022-11-06T13:34:26;3.30;;;1.48;;
51883;SDS011;37915;53.254;6.598;2022-11-06T13:36:59;5.28;;;2.20;;
51883;SDS011;37915;53.254;6.598;2022-11-06T13:39:31;6.28;;;1.90;;
51883;SDS011;37915;53.254;6.598;2022-11-06T13:42:00;4.97;;;1.60;;
51883;SDS011;37915;53.254;6.598;2022-11-06T13:44:27;4.13;;;1.60;;
51883;SDS011;37915;53.254;6.598;2022-11-06T13:46:56;8.10;;;2.15;;
51883;SDS011;37915;53.254;6.598;2022-11-06T13:49:31;4.47;;;2.03;;
51883;SDS011;37915;53.254;6.598;2022-11-06T13:52:45;8.75;;;2.05;;
51883;SDS011;37915;53.254;6.598;2022-11-06T14:00:55;6.80;;;2.35;;
51883;SDS011;37915;53.254;6.598;2022-11-06T14:06:33;8.02;;;2.00;;
51883;SDS011;37915;53.254;6.598;2022-11-06T14:09:01;4.10;;;1.60;;
51883;SDS011;37915;53.254;6.598;2022-11-06T14:11:41;8.38;;;1.77;;
51883;SDS011;37915;53.254;6.598;2022-11-06T14:16:44;5.45;;;1.55;;
51883;SDS011;37915;53.254;6.598;2022-11-06T14:19:16;6.97;;;2.08;;
51883;SDS011;37915;53.254;6.598;2022-11-06T14:24:38;7.72;;;2.08;;
51883;SDS011;37915;53.254;6.598;2022-11-06T14:29:55;4.93;;;1.38;;
51883;SDS011;37915;53.254;6.598;2022-11-06T14:40:56;4.50;;;1.75;;
51883;SDS011;37915;53.254;6.598;2022-11-06T14:43:32;8.32;;;2.22;;
51883;SDS011;37915;53.254;6.598;2022-11-06T14:46:03;4.63;;;1.50;;
51883;SDS011;37915;53.254;6.598;2022-11-06T14:48:38;6.13;;;1.50;;
51883;SDS011;37915;53.254;6.598;2022-11-06T14:51:08;5.75;;;2.00;;
51883;SDS011;37915;53.254;6.598;2022-11-06T14:53:43;6.45;;;1.90;;
51883;SDS011;37915;53.254;6.598;2022-11-06T14:56:18;6.05;;;2.17;;
51883;SDS011;37915;53.254;6.598;2022-11-06T14:58:47;8.23;;;1.85;;
51883;SDS011;37915;53.254;6.598;2022-11-06T15:01:28;5.25;;;2.05;;
51883;SDS011;37915;53.254;6.598;2022-11-06T15:04:05;7.22;;;2.30;;
51883;SDS011;37915;53.254;6.598;2022-11-06T15:11:49;5.18;;;1.90;;
51883;SDS011;37915;53.254;6.598;2022-11-06T15:17:27;6.30;;;1.80;;
51883;SDS011;37915;53.254;6.598;2022-11-06T15:19:40;6.22;;;1.80;;
51883;SDS011;37915;53.254;6.598;2022-11-06T15:22:26;9.25;;;1.92;;
51883;SDS011;37915;53.254;6.598;2022-11-06T15:27:44;6.80;;;2.33;;
51883;SDS011;37915;53.254;6.598;2022-11-06T15:30:37;5.03;;;1.90;;
51883;SDS011;37915;53.254;6.598;2022-11-06T15:33:10;5.38;;;2.03;;
51883;SDS011;37915;53.254;6.598;2022-11-06T15:35:39;6.65;;;1.80;;
51883;SDS011;37915;53.254;6.598;2022-11-06T15:38:09;4.72;;;1.70;;
51883;SDS011;37915;53.254;6.598;2022-11-06T15:40:40;7.97;;;2.00;;
51883;SDS011;37915;53.254;6.598;2022-11-06T15:48:29;10.82;;;2.90;;
51883;SDS011;37915;53.254;6.598;2022-11-06T15:50:55;6.78;;;2.30;;
51883;SDS011;37915;53.254;6.598;2022-11-06T15:53:23;5.35;;;2.03;;
51883;SDS011;37915;53.254;6.598;2022-11-06T15:58:31;6.95;;;2.80;;
51883;SDS011;37915;53.254;6.598;2022-11-06T16:00:58;7.70;;;2.40;;
51883;SDS011;37915;53.254;6.598;2022-11-06T16:03:26;6.72;;;2.10;;
51883;SDS011;37915;53.254;6.598;2022-11-06T16:05:55;8.90;;;2.60;;
51883;SDS011;37915;53.254;6.598;2022-11-06T16:08:23;7.68;;;2.60;;
51883;SDS011;37915;53.254;6.598;2022-11-06T16:10:52;9.55;;;5.68;;
51883;SDS011;37915;53.254;6.598;2022-11-06T16:13:20;7.43;;;3.03;;
51883;SDS011;37915;53.254;6.598;2022-11-06T16:15:49;6.18;;;2.80;;
51883;SDS011;37915;53.254;6.598;2022-11-06T16:18:24;7.07;;;3.08;;
51883;SDS011;37915;53.254;6.598;2022-11-06T16:20:58;5.50;;;2.88;;
51883;SDS011;37915;53.254;6.598;2022-11-06T16:26:09;8.20;;;3.47;;
51883;SDS011;37915;53.254;6.598;2022-11-06T16:28:48;10.63;;;3.35;;
51883;SDS011;37915;53.254;6.598;2022-11-06T16:31:16;7.50;;;3.20;;
51883;SDS011;37915;53.254;6.598;2022-11-06T16:34:16;6.47;;;3.35;;
51883;SDS011;37915;53.254;6.598;2022-11-06T16:36:50;8.45;;;3.58;;
51883;SDS011;37915;53.254;6.598;2022-11-06T16:44:45;7.07;;;3.47;;
51883;SDS011;37915;53.254;6.598;2022-11-06T16:47:18;7.32;;;3.58;;
51883;SDS011;37915;53.254;6.598;2022-11-06T16:49:47;4.95;;;2.80;;
51883;SDS011;37915;53.254;6.598;2022-11-06T16:52:31;9.57;;;3.47;;
51883;SDS011;37915;53.254;6.598;2022-11-06T17:00:06;5.20;;;3.03;;
51883;SDS011;37915;53.254;6.598;2022-11-06T17:02:33;5.63;;;3.15;;
51883;SDS011;37915;53.254;6.598;2022-11-06T17:07:38;6.85;;;2.58;;
51883;SDS011;37915;53.254;6.598;2022-11-06T17:13:10;5.10;;;2.35;;
51883;SDS011;37915;53.254;6.598;2022-11-06T17:16:05;6.43;;;2.15;;
51883;SDS011;37915;53.254;6.598;2022-11-06T17:18:49;3.80;;;1.77;;
51883;SDS011;37915;53.254;6.598;2022-11-06T17:21:22;5.85;;;1.55;;
51883;SDS011;37915;53.254;6.598;2022-11-06T17:23:49;4.30;;;1.50;;
51883;SDS011;37915;53.254;6.598;2022-11-06T17:28:42;3.03;;;1.30;;
51883;SDS011;37915;53.254;6.598;2022-11-06T17:31:12;3.80;;;1.40;;
51883;SDS011;37915;53.254;6.598;2022-11-06T17:33:39;8.98;;;2.10;;
51883;SDS011;37915;53.254;6.598;2022-11-06T17:36:05;4.28;;;1.40;;
51883;SDS011;37915;53.254;6.598;2022-11-06T17:38:36;3.00;;;1.30;;
51883;SDS011;37915;53.254;6.598;2022-11-06T17:41:02;3.33;;;1.38;;
51883;SDS011;37915;53.254;6.598;2022-11-06T17:43:28;5.03;;;1.30;;
51883;SDS011;37915;53.254;6.598;2022-11-06T17:45:53;6.80;;;3.65;;
51883;SDS011;37915;53.254;6.598;2022-11-06T17:48:20;2.88;;;1.45;;
51883;SDS011;37915;53.254;6.598;2022-11-06T17:50:45;3.28;;;1.33;;
51883;SDS011;37915;53.254;6.598;2022-11-06T17:53:29;5.53;;;1.35;;